createdAt,value
2017-09-07T00:00:16.469Z,74.2
2017-09-07T00:01:15.779Z,74.1
2017-09-07T00:02:14.839Z,73.8
2017-09-07T00:03:14.159Z,73.9
2017-09-07T00:04:13.597Z,73.9
2017-09-07T00:05:12.282Z,73.8
2017-09-07T00:06:11.727Z,74.1
2017-09-07T00:07:10.921Z,74.4
2017-09-07T00:08:10.233Z,74
2017-09-07T00:09:09.297Z,74.2
2017-09-07T00:10:08.613Z,73.6
2017-09-07T00:12:07.210Z,73.8
2017-09-07T00:13:06.145Z,73.7
2017-09-07T00:14:05.719Z,73.7
2017-09-07T00:15:05.154Z,73.7
2017-09-07T00:16:03.843Z,73.9
2017-09-07T00:17:03.285Z,73.9
2017-09-07T00:18:02.607Z,73.8
2017-09-07T00:19:01.802Z,73.8
2017-09-07T00:20:01.261Z,73.7
2017-09-07T00:21:00.225Z,73.9
2017-09-07T00:21:59.407Z,73.7
2017-09-07T00:22:58.366Z,73.7
2017-09-07T00:23:58.313Z,73.8
2017-09-07T00:24:56.875Z,73.8
2017-09-07T00:25:56.066Z,73.5
2017-09-07T00:26:55.261Z,73.2
2017-09-07T00:27:26.152Z,73.2
2017-09-07T00:27:56.278Z,73.7
2017-09-07T00:28:26.910Z,73.7
2017-09-07T00:28:56.921Z,73.7
2017-09-07T00:29:27.287Z,73.7
2017-09-07T00:30:52.387Z,73.7
2017-09-07T00:31:51.713Z,73.7
2017-09-07T00:32:50.909Z,74.1
2017-09-07T00:33:50.406Z,73.8
2017-09-07T00:34:49.592Z,74
2017-09-07T00:35:48.271Z,73.7
2017-09-07T00:36:48.085Z,73.8
2017-09-07T00:37:47.525Z,73.6
2017-09-07T00:38:46.338Z,73.9
2017-09-07T00:39:45.896Z,73.2
2017-09-07T00:40:44.611Z,73.1
2017-09-07T00:41:44.105Z,73.5
2017-09-07T00:43:42.302Z,74.2
2017-09-07T00:44:41.370Z,73.7
2017-09-07T00:45:41.053Z,74
2017-09-07T00:46:40.004Z,74.3
2017-09-07T00:47:39.314Z,74.1
2017-09-07T00:48:38.501Z,74.1
2017-09-07T00:49:38.115Z,74.1
2017-09-07T00:50:36.797Z,73.7
2017-09-07T00:51:35.973Z,74.1
2017-09-07T00:53:34.801Z,74.6
2017-09-07T00:54:33.747Z,74.2
2017-09-07T00:55:32.928Z,74.2
2017-09-07T00:56:32.490Z,73.8
2017-09-07T00:57:31.174Z,74.1
2017-09-07T00:58:31.000Z,74.3
2017-09-07T00:59:30.062Z,74.5
2017-09-07T01:00:29.382Z,73.6
2017-09-07T01:01:28.189Z,74.2
2017-09-07T01:02:27.627Z,74.3
2017-09-07T01:03:27.060Z,74.4
2017-09-07T01:04:26.381Z,74.1
2017-09-07T01:05:25.319Z,74.2
2017-09-07T01:06:24.628Z,73.7
2017-09-07T01:07:23.797Z,73.7
2017-09-07T01:08:23.219Z,74.3
2017-09-07T01:09:22.264Z,74.5
2017-09-07T01:10:21.430Z,74.7
2017-09-07T01:11:20.854Z,74.6
2017-09-07T01:12:20.171Z,74.1
2017-09-07T01:14:18.390Z,74.1
2017-09-07T01:15:17.531Z,74.5
2017-09-07T01:16:16.832Z,74.7
2017-09-07T01:17:15.883Z,74.5
2017-09-07T01:18:15.184Z,74.5
2017-09-07T01:19:14.366Z,74.5
2017-09-07T01:20:13.413Z,75
2017-09-07T01:20:43.777Z,75
2017-09-07T01:21:14.388Z,74.7
2017-09-07T01:21:44.619Z,74.7
2017-09-07T01:22:14.926Z,74.7
2017-09-07T01:23:11.204Z,74.4
2017-09-07T01:24:10.633Z,74.5
2017-09-07T01:25:09.555Z,74.5
2017-09-07T01:26:08.981Z,74.9
2017-09-07T01:27:08.280Z,74.9
2017-09-07T01:28:07.451Z,74.9
2017-09-07T01:29:06.624Z,75.3
2017-09-07T01:30:06.046Z,75.1
2017-09-07T01:31:05.216Z,75.3
2017-09-07T01:32:04.517Z,75.3
2017-09-07T01:33:03.698Z,75.4
2017-09-07T01:34:02.623Z,75.4
2017-09-07T01:35:01.925Z,75.9
2017-09-07T01:37:00.614Z,75.8
2017-09-07T01:37:59.792Z,75.6
2017-09-07T01:38:58.837Z,75.5
2017-09-07T01:39:57.883Z,75.5
2017-09-07T01:40:57.188Z,75.6
2017-09-07T01:41:56.107Z,75.7
2017-09-07T01:42:55.913Z,75.7
2017-09-07T01:43:54.965Z,75.7
2017-09-07T01:46:52.663Z,75.8
2017-09-07T01:47:51.709Z,75.6
2017-09-07T01:48:51.009Z,75.6
2017-09-07T01:51:48.455Z,76
2017-09-07T01:52:47.761Z,75.2
2017-09-07T01:53:47.188Z,75.7
2017-09-07T01:54:46.618Z,75.4
2017-09-07T01:55:45.288Z,76.1
2017-09-07T01:56:44.970Z,76
2017-09-07T01:57:43.893Z,75.7
2017-09-07T01:58:43.193Z,75.9
2017-09-07T01:59:42.494Z,76
2017-09-07T02:00:41.915Z,76
2017-09-07T02:01:40.705Z,76
2017-09-07T02:02:39.996Z,75.7
2017-09-07T02:03:39.173Z,75.7
2017-09-07T02:05:37.860Z,75.6
2017-09-07T02:06:36.678Z,75.6
2017-09-07T02:07:36.231Z,75.6
2017-09-07T02:08:35.772Z,75.4
2017-09-07T02:09:34.698Z,75.6
2017-09-07T02:10:33.996Z,75.9
2017-09-07T02:11:33.175Z,76.2
2017-09-07T02:12:32.219Z,75.8
2017-09-07T02:13:31.638Z,76
2017-09-07T02:14:30.431Z,76
2017-09-07T02:15:29.607Z,75.8
2017-09-07T02:16:29.034Z,76.2
2017-09-07T02:17:28.333Z,76.4
2017-09-07T02:18:27.503Z,76.4
2017-09-07T02:19:26.682Z,76.4
2017-09-07T02:20:25.981Z,76
2017-09-07T02:22:24.297Z,76.4
2017-09-07T02:23:23.595Z,76
2017-09-07T02:25:22.159Z,75.9
2017-09-07T02:26:20.951Z,75.8
2017-09-07T02:27:20.632Z,76.3
2017-09-07T02:28:19.433Z,76.3
2017-09-07T02:30:18.119Z,75.8
2017-09-07T02:31:17.681Z,75.9
2017-09-07T02:32:16.487Z,75.9
2017-09-07T02:33:15.789Z,75.9
2017-09-07T02:34:14.830Z,76.1
2017-09-07T02:36:13.509Z,76.3
2017-09-07T02:37:12.943Z,76.3
2017-09-07T02:38:11.495Z,76.2
2017-09-07T02:39:10.735Z,75.9
2017-09-07T02:40:10.449Z,76.1
2017-09-07T02:41:09.660Z,76.1
2017-09-07T02:42:08.585Z,76.1
2017-09-07T02:43:07.761Z,75.8
2017-09-07T02:44:07.311Z,76.2
2017-09-07T02:45:06.363Z,76.1
2017-09-07T02:46:05.915Z,76.1
2017-09-07T02:47:04.462Z,75.7
2017-09-07T02:48:04.016Z,75.6
2017-09-07T02:49:03.443Z,75.4
2017-09-07T02:51:01.625Z,75.3
2017-09-07T02:52:00.673Z,75.6
2017-09-07T02:53:00.108Z,75.3
2017-09-07T02:54:58.292Z,75.3
2017-09-07T02:55:57.718Z,75.5
2017-09-07T02:56:56.885Z,75.5
2017-09-07T02:58:55.575Z,75.3
2017-09-07T02:59:54.749Z,75.7
2017-09-07T03:00:53.675Z,75.8
2017-09-07T03:01:52.971Z,75.7
2017-09-07T03:02:52.146Z,75.1
2017-09-07T03:03:51.070Z,75.3
2017-09-07T03:04:50.368Z,75.3
2017-09-07T03:05:50.047Z,75.5
2017-09-07T03:06:49.228Z,75.7
2017-09-07T03:08:47.293Z,75.9
2017-09-07T03:09:46.591Z,75.1
2017-09-07T03:10:45.516Z,75.4
2017-09-07T03:13:43.586Z,75.2
2017-09-07T03:14:42.633Z,75.2
2017-09-07T03:15:41.935Z,74.9
2017-09-07T03:16:41.355Z,75
2017-09-07T03:17:40.398Z,75
2017-09-07T03:18:39.957Z,74.8
2017-09-07T03:20:38.019Z,75.3
2017-09-07T03:21:37.451Z,75.3
2017-09-07T03:22:36.366Z,75.5
2017-09-07T03:23:35.672Z,75.4
2017-09-07T03:24:34.844Z,75.4
2017-09-07T03:25:34.396Z,75.6
2017-09-07T03:26:33.320Z,75.2
2017-09-07T03:27:32.615Z,75.1
2017-09-07T03:28:32.038Z,75.3
2017-09-07T03:29:31.215Z,75.3
2017-09-07T03:30:30.368Z,75.3
2017-09-07T03:31:29.044Z,75.3
2017-09-07T03:32:28.859Z,75.6
2017-09-07T03:33:27.905Z,75.4
2017-09-07T03:34:27.330Z,75.7
2017-09-07T03:35:26.629Z,75.9
2017-09-07T03:36:25.680Z,75.9
2017-09-07T03:37:24.990Z,75.7
2017-09-07T03:38:24.167Z,75.8
2017-09-07T03:39:23.467Z,75.7
2017-09-07T03:40:22.512Z,75.6
2017-09-07T03:41:21.679Z,75.9
2017-09-07T03:42:20.724Z,76
2017-09-07T03:43:20.278Z,76.3
2017-09-07T03:44:19.580Z,76.1
2017-09-07T03:45:18.122Z,76.1
2017-09-07T03:46:17.808Z,76
2017-09-07T03:47:16.983Z,76.1
2017-09-07T03:48:16.280Z,76.1
2017-09-07T03:49:15.328Z,76.1
2017-09-07T03:50:14.747Z,76
2017-09-07T03:51:13.542Z,75.9
2017-09-07T03:52:13.098Z,76.1
2017-09-07T03:53:12.015Z,76
2017-09-07T03:54:11.443Z,75.7
2017-09-07T03:56:10.132Z,76.1
2017-09-07T03:57:09.188Z,76.4
2017-09-07T03:58:08.364Z,76.2
2017-09-07T03:59:07.661Z,76.3
2017-09-07T04:00:06.711Z,76.5
2017-09-07T04:01:06.010Z,76.7
2017-09-07T04:02:05.058Z,76.3
2017-09-07T04:04:03.875Z,76.5
2017-09-07T04:05:03.043Z,76.4
2017-09-07T04:06:02.212Z,76.4
2017-09-07T04:07:00.890Z,76.2
2017-09-07T04:08:00.452Z,76.3
2017-09-07T04:08:59.754Z,76.6
2017-09-07T04:09:58.551Z,76.5
2017-09-07T04:10:57.983Z,76.3
2017-09-07T04:11:57.281Z,76.3
2017-09-07T04:12:56.582Z,77.2
2017-09-07T04:13:55.631Z,76.6
2017-09-07T04:14:54.551Z,76.6
2017-09-07T04:15:53.725Z,77.2
2017-09-07T04:16:53.651Z,77
2017-09-07T04:17:52.577Z,77
2017-09-07T04:18:52.004Z,76.8
2017-09-07T04:19:51.053Z,77.2
2017-09-07T04:20:50.481Z,77.4
2017-09-07T04:21:49.148Z,77.4
2017-09-07T04:22:48.707Z,77.4
2017-09-07T04:23:47.758Z,77.4
2017-09-07T04:24:46.935Z,77.4
2017-09-07T04:25:46.495Z,77.4
2017-09-07T04:26:45.289Z,77.7
2017-09-07T04:27:44.599Z,77.4
2017-09-07T04:28:44.024Z,77.6
2017-09-07T04:29:43.324Z,77.3
2017-09-07T04:30:41.989Z,77.5
2017-09-07T04:31:41.408Z,77.5
2017-09-07T04:32:40.968Z,77.6
2017-09-07T04:33:40.014Z,77.6
2017-09-07T04:34:39.060Z,77.7
2017-09-07T04:35:38.357Z,77.8
2017-09-07T04:36:37.904Z,77.7
2017-09-07T04:37:36.835Z,77.5
2017-09-07T04:39:35.263Z,77.8
2017-09-07T04:40:34.568Z,78
2017-09-07T04:41:33.741Z,78
2017-09-07T04:42:32.913Z,77.6
2017-09-07T04:43:31.835Z,77.8
2017-09-07T04:44:31.138Z,77.7
2017-09-07T04:45:30.436Z,77.8
2017-09-07T04:46:29.981Z,77.9
2017-09-07T04:47:28.904Z,78
2017-09-07T04:48:28.327Z,77.9
2017-09-07T04:49:27.502Z,77.9
2017-09-07T04:50:26.926Z,77.9
2017-09-07T04:51:25.881Z,77.9
2017-09-07T04:52:24.552Z,77.9
2017-09-07T04:53:24.356Z,77.8
2017-09-07T04:54:23.277Z,77.9
2017-09-07T04:55:22.580Z,77.7
2017-09-07T04:56:21.872Z,77.5
2017-09-07T04:57:20.922Z,77.8
2017-09-07T04:58:20.226Z,78
2017-09-07T04:59:19.528Z,78
2017-09-07T05:01:17.463Z,77.8
2017-09-07T05:02:17.140Z,77.4
2017-09-07T05:03:16.313Z,77.4
2017-09-07T05:04:15.606Z,77.3
2017-09-07T05:05:14.782Z,77.1
2017-09-07T05:06:13.577Z,77.1
2017-09-07T05:07:13.127Z,77.4
2017-09-07T05:08:12.429Z,77.6
2017-09-07T05:10:10.617Z,77.3
2017-09-07T05:11:09.791Z,77.1
2017-09-07T05:13:08.232Z,76.7
2017-09-07T05:14:07.279Z,77.1
2017-09-07T05:15:06.709Z,77.5
2017-09-07T05:16:05.639Z,77.1
2017-09-07T05:17:04.809Z,77.1
2017-09-07T05:18:04.369Z,77.1
2017-09-07T05:19:03.538Z,77
2017-09-07T05:21:01.847Z,76.7
2017-09-07T05:22:01.026Z,76.7
2017-09-07T05:23:00.579Z,76.9
2017-09-07T05:23:59.873Z,76.1
2017-09-07T05:24:58.666Z,76.4
2017-09-07T05:25:58.086Z,76.4
2017-09-07T05:26:57.508Z,76.3
2017-09-07T05:27:56.676Z,76
2017-09-07T05:28:27.288Z,76
2017-09-07T05:29:54.649Z,76.3
2017-09-07T05:30:53.948Z,76
2017-09-07T05:31:53.246Z,76.3
2017-09-07T05:32:52.549Z,75.8
2017-09-07T05:33:51.844Z,75.9
2017-09-07T05:35:50.118Z,75.9
2017-09-07T05:37:48.683Z,75.6
2017-09-07T05:40:46.132Z,75.7
2017-09-07T05:41:45.053Z,75.4
2017-09-07T05:42:44.349Z,75.2
2017-09-07T05:43:43.655Z,75.2
2017-09-07T05:44:43.209Z,74.6
2017-09-07T05:45:42.136Z,74.4
2017-09-07T05:46:41.715Z,74.1
2017-09-07T05:47:40.735Z,74.3
2017-09-07T05:48:40.157Z,74.1
2017-09-07T05:49:39.328Z,73.8
2017-09-07T05:50:38.626Z,73.1
2017-09-07T05:51:37.550Z,73
2017-09-07T05:52:36.613Z,73
2017-09-07T05:53:35.921Z,73
2017-09-07T05:54:35.099Z,72.2
2017-09-07T05:55:34.271Z,72
2017-09-07T05:56:33.443Z,71.7
2017-09-07T05:57:32.746Z,72
2017-09-07T05:58:32.045Z,71.4
2017-09-07T05:59:31.595Z,71.2
2017-09-07T06:00:30.142Z,71.5
2017-09-07T06:01:29.448Z,71.9
2017-09-07T06:02:28.624Z,71.7
2017-09-07T06:03:28.305Z,71.6
2017-09-07T06:03:58.920Z,71.6
2017-09-07T06:05:26.781Z,72
2017-09-07T06:06:25.448Z,72.1
2017-09-07T06:07:24.996Z,72.3
2017-09-07T06:08:24.305Z,72.3
2017-09-07T06:09:23.252Z,72.4
2017-09-07T06:10:22.423Z,72.4
2017-09-07T06:11:21.590Z,72.4
2017-09-07T06:12:21.146Z,71.9
2017-09-07T06:13:20.446Z,72.3
2017-09-07T06:14:19.373Z,72.2
2017-09-07T06:15:18.933Z,72.1
2017-09-07T06:16:17.607Z,72.3
2017-09-07T06:17:17.159Z,72.2
2017-09-07T06:19:15.347Z,71.9
2017-09-07T06:20:15.030Z,73.5
2017-09-07T06:21:13.701Z,74.7
2017-09-07T06:22:13.629Z,75.2
2017-09-07T06:23:12.421Z,76.1
2017-09-07T06:24:11.846Z,76.1
2017-09-07T06:25:10.770Z,76.5
2017-09-07T06:26:10.320Z,77
2017-09-07T06:27:08.988Z,77.4
2017-09-07T06:29:07.714Z,77.9
2017-09-07T06:30:07.142Z,78.6
2017-09-07T06:31:05.943Z,78.3
2017-09-07T06:32:05.249Z,77.8
2017-09-07T06:33:04.428Z,78.2
2017-09-07T06:34:03.732Z,79.5
2017-09-07T06:35:03.168Z,79.7
2017-09-07T06:36:02.357Z,80.2
2017-09-07T06:37:01.277Z,80.9
2017-09-07T06:38:00.578Z,82.2
2017-09-07T06:38:59.751Z,82.9
2017-09-07T06:39:58.925Z,83.3
2017-09-07T06:40:57.969Z,83.4
2017-09-07T06:41:57.523Z,84.3
2017-09-07T06:42:56.702Z,85.2
2017-09-07T06:43:56.008Z,84.9
2017-09-07T06:44:26.496Z,84.9
2017-09-07T06:44:56.979Z,85.6
2017-09-07T06:45:27.344Z,85.6
2017-09-07T06:46:53.693Z,85.8
2017-09-07T06:48:52.396Z,85.9
2017-09-07T06:49:50.942Z,86
2017-09-07T06:50:50.624Z,86
2017-09-07T06:51:49.921Z,86
2017-09-07T06:52:48.720Z,87
2017-09-07T06:53:48.023Z,87.2
2017-09-07T06:54:47.199Z,86.7
2017-09-07T06:55:46.883Z,87
2017-09-07T06:56:45.803Z,87.3
2017-09-07T06:57:45.225Z,87.3
2017-09-07T06:58:44.147Z,87.3
2017-09-07T06:59:43.565Z,87.3
2017-09-07T07:00:42.735Z,87.6
2017-09-07T07:01:42.153Z,87.3
2017-09-07T07:02:40.830Z,87.3
2017-09-07T07:03:40.127Z,87.3
2017-09-07T07:04:39.689Z,87.3
2017-09-07T07:05:38.613Z,87.4
2017-09-07T07:06:37.658Z,87.3
2017-09-07T07:07:37.088Z,87.5
2017-09-07T07:08:36.050Z,87.2
2017-09-07T07:09:35.483Z,87.1
2017-09-07T07:10:34.532Z,86.5
2017-09-07T07:11:33.957Z,86
2017-09-07T07:12:33.510Z,86.5
2017-09-07T07:13:32.185Z,86.2
2017-09-07T07:14:31.611Z,85.7
2017-09-07T07:15:31.043Z,86
2017-09-07T07:16:29.968Z,85.3
2017-09-07T07:17:29.272Z,85.8
2017-09-07T07:18:28.318Z,85.9
2017-09-07T07:19:27.870Z,85.5
2017-09-07T07:20:26.659Z,84.7
2017-09-07T07:21:25.954Z,84.7
2017-09-07T07:22:25.509Z,84.7
2017-09-07T07:23:24.432Z,83.6
2017-09-07T07:24:23.731Z,84
2017-09-07T07:25:22.780Z,84.2
2017-09-07T07:26:21.959Z,82.2
2017-09-07T07:27:21.392Z,82.3
2017-09-07T07:29:19.949Z,82.4
2017-09-07T07:31:18.257Z,82.8
2017-09-07T07:32:17.563Z,82.8
2017-09-07T07:33:16.732Z,83
2017-09-07T07:34:16.170Z,82.1
2017-09-07T07:35:14.845Z,82
2017-09-07T07:36:14.141Z,81.5
2017-09-07T07:37:13.318Z,81.7
2017-09-07T07:38:13.130Z,80.8
2017-09-07T07:39:11.804Z,80.8
2017-09-07T07:40:10.853Z,80.8
2017-09-07T07:41:10.530Z,79.8
2017-09-07T07:42:09.834Z,79.3
2017-09-07T07:43:09.010Z,78.7
2017-09-07T07:44:08.304Z,78.2
2017-09-07T07:45:07.100Z,77.2
2017-09-07T07:46:06.404Z,77.7
2017-09-07T07:47:05.716Z,76.9
2017-09-07T07:48:05.012Z,77.2
2017-09-07T07:49:04.064Z,76.5
2017-09-07T07:50:03.490Z,76.7
2017-09-07T07:51:02.792Z,77
2017-09-07T07:52:02.099Z,77.2
2017-09-07T07:53:01.531Z,76.9
2017-09-07T07:54:00.461Z,76.5
2017-09-07T07:54:59.380Z,77.4
2017-09-07T07:55:58.810Z,77.1
2017-09-07T07:56:57.983Z,77.1
2017-09-07T07:57:57.152Z,77.1
2017-09-07T07:58:56.450Z,77
2017-09-07T07:59:55.494Z,76.4
2017-09-07T08:00:54.790Z,76.7
2017-09-07T08:01:53.963Z,76.2
2017-09-07T08:02:53.275Z,77.4
2017-09-07T08:03:52.329Z,77.3
2017-09-07T08:04:52.007Z,76.7
2017-09-07T08:05:51.188Z,78.4
2017-09-07T08:06:49.990Z,79.4
2017-09-07T08:07:49.420Z,78.5
2017-09-07T08:08:48.855Z,77.9
2017-09-07T08:09:47.907Z,79.3
2017-09-07T08:10:46.954Z,80.5
2017-09-07T08:11:46.628Z,80.3
2017-09-07T08:12:45.805Z,81.3
2017-09-07T08:13:44.726Z,81
2017-09-07T08:14:44.170Z,81
2017-09-07T08:15:43.596Z,81
2017-09-07T08:16:42.518Z,81.5
2017-09-07T08:17:41.684Z,81.2
2017-09-07T08:18:41.241Z,81.3
2017-09-07T08:19:40.413Z,81.3
2017-09-07T08:20:39.582Z,81.3
2017-09-07T08:21:38.758Z,81.3
2017-09-07T08:22:38.191Z,81.6
2017-09-07T08:23:37.364Z,82.4
2017-09-07T08:24:36.532Z,82.3
2017-09-07T08:25:35.328Z,82.2
2017-09-07T08:26:34.789Z,80.3
2017-09-07T08:27:33.968Z,80.6
2017-09-07T08:28:33.277Z,80.4
2017-09-07T08:29:32.701Z,81.2
2017-09-07T08:30:32.124Z,80.6
2017-09-07T08:31:31.047Z,80.3
2017-09-07T08:32:30.222Z,80.3
2017-09-07T08:33:29.780Z,80.3
2017-09-07T08:34:28.575Z,80.2
2017-09-07T08:35:27.885Z,79.4
2017-09-07T08:36:27.071Z,78.4
2017-09-07T08:37:26.254Z,78.7
2017-09-07T08:38:25.560Z,78.2
2017-09-07T08:39:25.114Z,78.4
2017-09-07T08:40:24.423Z,78.4
2017-09-07T08:41:23.214Z,77.7
2017-09-07T08:42:22.649Z,78.3
2017-09-07T08:43:21.825Z,77.5
2017-09-07T08:44:21.248Z,78.4
2017-09-07T08:45:20.306Z,79.6
2017-09-07T08:47:18.490Z,76.3
2017-09-07T08:48:17.922Z,76.4
2017-09-07T08:49:17.222Z,74.3
2017-09-07T08:50:16.525Z,74.3
2017-09-07T08:51:15.576Z,74.3
2017-09-07T08:52:15.131Z,74.3
2017-09-07T08:54:13.690Z,73.5
2017-09-07T08:55:12.739Z,72.7
2017-09-07T08:56:12.037Z,73.7
2017-09-07T08:57:11.216Z,73.3
2017-09-07T08:59:09.536Z,74.7
2017-09-07T09:00:09.215Z,74.2
2017-09-07T09:01:08.010Z,74.2
2017-09-07T09:02:07.568Z,73.2
2017-09-07T09:04:05.760Z,73.2
2017-09-07T09:05:05.060Z,73.2
2017-09-07T09:06:04.745Z,73.4
2017-09-07T09:09:01.951Z,72.2
2017-09-07T09:10:01.261Z,71.7
2017-09-07T09:11:00.436Z,71.4
2017-09-07T09:11:59.744Z,71.4
2017-09-07T09:12:59.175Z,71
2017-09-07T09:13:58.349Z,71.1
2017-09-07T09:14:57.784Z,71.2
2017-09-07T09:15:56.957Z,71.2
2017-09-07T09:16:56.260Z,71.3
2017-09-07T09:17:55.300Z,71.4
2017-09-07T09:20:53.003Z,71.3
2017-09-07T09:21:52.176Z,70.7
2017-09-07T09:22:51.724Z,70.7
2017-09-07T09:23:50.898Z,70.3
2017-09-07T09:24:50.070Z,70.9
2017-09-07T09:25:49.124Z,70.9
2017-09-07T09:26:49.065Z,71.6
2017-09-07T09:27:47.865Z,71.9
2017-09-07T09:28:47.333Z,71
2017-09-07T09:29:46.147Z,71.1
2017-09-07T09:30:45.832Z,70.9
2017-09-07T09:31:44.882Z,71.5
2017-09-07T09:32:44.059Z,70.2
2017-09-07T09:33:43.239Z,70.9
2017-09-07T09:34:42.792Z,70.9
2017-09-07T09:35:42.216Z,70.9
2017-09-07T09:36:41.138Z,70.7
2017-09-07T09:37:40.313Z,70.4
2017-09-07T09:38:39.615Z,70.6
2017-09-07T09:39:38.672Z,70.7
2017-09-07T09:40:38.364Z,69.5
2017-09-07T09:41:37.536Z,69.9
2017-09-07T09:42:36.530Z,70.3
2017-09-07T09:43:35.958Z,70.3
2017-09-07T09:44:35.382Z,70.3
2017-09-07T09:45:34.185Z,69.8
2017-09-07T09:46:33.616Z,68.5
2017-09-07T09:47:32.920Z,68.7
2017-09-07T09:48:32.096Z,69.6
2017-09-07T09:49:31.398Z,69.4
2017-09-07T09:50:30.951Z,69
2017-09-07T09:51:30.253Z,69
2017-09-07T09:52:29.181Z,68.2
2017-09-07T09:53:28.485Z,67.4
2017-09-07T09:54:27.786Z,67.4
2017-09-07T09:55:27.096Z,68.2
2017-09-07T09:56:26.269Z,67.9
2017-09-07T09:57:25.574Z,67.8
2017-09-07T09:58:24.878Z,68.4
2017-09-07T09:59:24.322Z,67
2017-09-07T10:00:23.371Z,67.6
2017-09-07T10:01:22.545Z,67.6
2017-09-07T10:02:21.968Z,67.8
2017-09-07T10:03:21.018Z,67.2
2017-09-07T10:04:20.444Z,66.7
2017-09-07T10:05:19.873Z,68.3
2017-09-07T10:06:19.046Z,67.5
2017-09-07T10:07:18.222Z,66.3
2017-09-07T10:08:17.523Z,67
2017-09-07T10:09:16.824Z,67.1
2017-09-07T10:10:15.996Z,66.9
2017-09-07T10:11:15.553Z,65.9
2017-09-07T10:12:14.601Z,66.7
2017-09-07T10:12:44.834Z,66.7
2017-09-07T10:14:13.466Z,67.5
2017-09-07T10:15:12.131Z,67.1
2017-09-07T10:16:11.714Z,66.2
2017-09-07T10:17:11.138Z,65.6
2017-09-07T10:19:09.444Z,64.3
2017-09-07T10:20:08.866Z,64.8
2017-09-07T10:21:08.171Z,63.8
2017-09-07T10:22:07.095Z,64.3
2017-09-07T10:23:06.899Z,64.6
2017-09-07T10:24:05.829Z,63.3
2017-09-07T10:25:05.425Z,63
2017-09-07T10:26:04.476Z,64.2
2017-09-07T10:27:03.904Z,62.1
2017-09-07T10:28:02.709Z,63.8
2017-09-07T10:29:02.263Z,64.4
2017-09-07T10:30:01.814Z,65.3
2017-09-07T10:31:00.493Z,65.8
2017-09-07T10:32:00.419Z,65
2017-09-07T10:32:59.347Z,64.6
2017-09-07T10:33:58.643Z,64.7
2017-09-07T10:34:58.082Z,63.6
2017-09-07T10:35:57.507Z,63.2
2017-09-07T10:36:56.677Z,63.2
2017-09-07T10:37:56.103Z,64.2
2017-09-07T10:38:54.772Z,64
2017-09-07T10:39:54.322Z,65.1
2017-09-07T10:40:53.497Z,65.5
2017-09-07T10:41:52.667Z,65.5
2017-09-07T10:42:52.216Z,65.5
2017-09-07T10:43:51.524Z,65.5
2017-09-07T10:44:50.832Z,64.7
2017-09-07T10:45:50.007Z,66.3
2017-09-07T10:46:49.186Z,65.5
2017-09-07T10:47:48.487Z,64.8
2017-09-07T10:48:47.538Z,64.2
2017-09-07T10:49:47.218Z,64.9
2017-09-07T10:50:46.520Z,64.8
2017-09-07T10:51:45.819Z,64.6
2017-09-07T10:52:45.367Z,65
2017-09-07T10:53:44.036Z,64.8
2017-09-07T10:54:43.589Z,64.8
2017-09-07T10:57:41.286Z,65.3
2017-09-07T10:58:40.587Z,65.3
2017-09-07T10:59:40.022Z,65.8
2017-09-07T11:00:39.451Z,65.5
2017-09-07T11:01:38.882Z,65.5
2017-09-07T11:02:37.937Z,65.9
2017-09-07T11:03:37.358Z,65.1
2017-09-07T11:04:36.669Z,66
2017-09-07T11:05:06.930Z,66
2017-09-07T11:05:37.414Z,64.7
2017-09-07T11:06:07.784Z,64.7
2017-09-07T11:06:38.268Z,64.8
2017-09-07T11:07:34.179Z,65.4
2017-09-07T11:08:33.354Z,65.3
2017-09-07T11:09:33.027Z,65.8
2017-09-07T11:10:31.954Z,65.6
2017-09-07T11:11:31.510Z,65.5
2017-09-07T11:12:30.680Z,65.5
2017-09-07T11:13:30.117Z,66
2017-09-07T11:14:29.540Z,64.5
2017-09-07T11:15:28.337Z,65.7
2017-09-07T11:16:27.772Z,65.3
2017-09-07T11:17:27.072Z,65.6
2017-09-07T11:18:26.122Z,65.9
2017-09-07T11:19:25.804Z,66.1
2017-09-07T11:20:25.098Z,65.3
2017-09-07T11:21:24.654Z,64.8
2017-09-07T11:22:23.588Z,63.6
2017-09-07T11:23:23.017Z,64
2017-09-07T11:24:21.943Z,64.1
2017-09-07T11:25:21.366Z,63.8
2017-09-07T11:26:20.658Z,64.6
2017-09-07T11:27:19.961Z,64
2017-09-07T11:28:19.385Z,64.4
2017-09-07T11:29:18.944Z,64.4
2017-09-07T11:30:17.997Z,64.4
2017-09-07T11:31:17.049Z,64.5
2017-09-07T11:32:16.223Z,64.2
2017-09-07T11:33:15.523Z,64.7
2017-09-07T11:34:14.827Z,65.4
2017-09-07T11:35:14.382Z,65.1
2017-09-07T11:36:13.693Z,64.3
2017-09-07T11:37:12.736Z,64.2
2017-09-07T11:38:12.032Z,63.3
2017-09-07T11:39:11.472Z,63.5
2017-09-07T11:40:10.782Z,64.1
2017-09-07T11:41:10.204Z,64.8
2017-09-07T11:42:09.131Z,64.4
2017-09-07T11:43:08.558Z,64.1
2017-09-07T11:44:07.733Z,63.6
2017-09-07T11:45:07.409Z,64
2017-09-07T11:46:06.332Z,64.7
2017-09-07T11:47:05.761Z,64.7
2017-09-07T11:48:05.186Z,64.7
2017-09-07T11:49:03.985Z,64.2
2017-09-07T11:50:03.416Z,64.4
2017-09-07T11:51:02.588Z,64.3
2017-09-07T11:52:01.890Z,63.6
2017-09-07T11:53:01.567Z,64.4
2017-09-07T11:54:00.987Z,64.8
2017-09-07T11:54:59.910Z,63.9
2017-09-07T11:55:59.719Z,64.7
2017-09-07T11:56:58.390Z,64.9
2017-09-07T11:57:57.822Z,64.6
2017-09-07T11:58:57.379Z,64.3
2017-09-07T11:59:56.681Z,63.5
2017-09-07T12:00:55.606Z,64.2
2017-09-07T12:01:55.040Z,64.2
2017-09-07T12:02:54.339Z,64.4
2017-09-07T12:03:53.386Z,64.7
2017-09-07T12:05:52.204Z,64.7
2017-09-07T12:06:51.633Z,65
2017-09-07T12:07:51.188Z,64.6
2017-09-07T12:08:50.111Z,65.1
2017-09-07T12:09:49.674Z,65.3
2017-09-07T12:10:48.466Z,64.3
2017-09-07T12:11:48.021Z,64.8
2017-09-07T12:12:47.321Z,64.8
2017-09-07T12:14:46.264Z,65.6
2017-09-07T12:15:45.437Z,65.1
2017-09-07T12:17:43.620Z,65
2017-09-07T12:18:43.052Z,63.6
2017-09-07T12:19:42.354Z,64.4
2017-09-07T12:20:41.786Z,63.1
2017-09-07T12:24:39.044Z,63
2017-09-07T12:26:37.355Z,62.3
2017-09-07T12:27:36.403Z,61.7
2017-09-07T12:30:34.490Z,61.6
2017-09-07T12:31:33.910Z,61.4
2017-09-07T12:32:04.021Z,61.4
2017-09-07T12:32:34.765Z,61.4
2017-09-07T12:33:05.250Z,61.4
2017-09-07T12:33:35.487Z,61
2017-09-07T12:34:05.592Z,61
2017-09-07T12:35:31.057Z,60.9
2017-09-07T12:36:30.733Z,59.8
2017-09-07T12:37:29.906Z,60.1
2017-09-07T12:38:28.965Z,60.2
2017-09-07T12:39:28.265Z,60.7
2017-09-07T12:43:25.974Z,60.4
2017-09-07T12:44:24.770Z,59.9
2017-09-07T12:45:24.197Z,59.5
2017-09-07T12:46:23.628Z,59.3
2017-09-07T12:47:22.930Z,60.7
2017-09-07T12:49:21.873Z,59.7
2017-09-07T12:52:19.578Z,60
2017-09-07T12:53:18.379Z,59.3
2017-09-07T12:54:18.185Z,59.5
2017-09-07T12:56:16.625Z,59.9
2017-09-07T12:57:15.801Z,60.9
2017-09-07T12:58:15.235Z,60.9
2017-09-07T12:59:14.533Z,60.9
2017-09-07T13:00:14.092Z,59.9
2017-09-07T13:03:11.924Z,59.7
2017-09-07T13:04:10.904Z,59.3
2017-09-07T13:05:10.583Z,59.4
2017-09-07T13:06:10.131Z,59.6
2017-09-07T13:08:08.567Z,60
2017-09-07T13:09:07.749Z,58.8
2017-09-07T13:10:07.193Z,58.7
2017-09-07T13:11:06.626Z,57.5
2017-09-07T13:13:04.814Z,58.5
2017-09-07T13:14:04.235Z,58.8
2017-09-07T13:14:34.849Z,58.8
2017-09-07T13:15:05.078Z,58.5
2017-09-07T13:17:02.387Z,58.5
2017-09-07T13:18:01.570Z,59.7
2017-09-07T13:19:00.744Z,58.6
2017-09-07T13:20:00.049Z,58
2017-09-07T13:20:59.482Z,57.8
2017-09-07T13:22:58.222Z,58.6
2017-09-07T13:23:57.524Z,58.3
2017-09-07T13:24:56.824Z,59.2
2017-09-07T13:25:27.313Z,59.2
2017-09-07T13:27:54.821Z,59.8
2017-09-07T13:28:53.870Z,59.7
2017-09-07T13:29:53.554Z,58.7
2017-09-07T13:30:52.980Z,59
2017-09-07T13:31:52.157Z,59
2017-09-07T13:32:51.581Z,59.5
2017-09-07T13:33:50.641Z,59.5
2017-09-07T13:34:49.943Z,59.5
2017-09-07T13:36:48.511Z,58
2017-09-07T13:37:48.202Z,58.4
2017-09-07T13:40:45.782Z,57.6
2017-09-07T13:45:42.382Z,57
2017-09-07T13:47:41.078Z,57.3
2017-09-07T13:48:40.506Z,57.4
2017-09-07T13:49:39.811Z,57.2
2017-09-07T13:50:39.375Z,57.4
2017-09-07T13:51:38.047Z,57.4
2017-09-07T13:52:37.355Z,57.4
2017-09-07T13:53:36.912Z,56.6
2017-09-07T13:54:36.097Z,57.4
2017-09-07T13:55:35.919Z,55.8
2017-09-07T13:56:34.967Z,57.3
2017-09-07T13:57:34.517Z,56.3
2017-09-07T13:59:32.842Z,55.8
2017-09-07T14:01:31.660Z,56.3
2017-09-07T14:03:30.101Z,57.5
2017-09-07T14:04:29.417Z,56.5
2017-09-07T14:07:27.275Z,55.1
2017-09-07T14:08:26.591Z,55.1
2017-09-07T14:10:25.402Z,54.9
2017-09-07T14:11:24.705Z,53.9
2017-09-07T14:12:24.134Z,54.2
2017-09-07T14:13:23.308Z,55
2017-09-07T14:14:22.870Z,54.2
2017-09-07T14:15:22.170Z,55.2
2017-09-07T14:17:20.364Z,55.9
2017-09-07T14:18:20.304Z,55.5
2017-09-07T14:19:19.498Z,55.7
2017-09-07T14:20:18.552Z,56.2
2017-09-07T14:21:18.108Z,56.4
2017-09-07T14:21:47.973Z,56.4
2017-09-07T14:22:18.712Z,56
2017-09-07T14:22:49.081Z,56
2017-09-07T14:23:19.702Z,56.3
2017-09-07T14:24:15.855Z,56.4
2017-09-07T14:25:14.910Z,54.8
2017-09-07T14:26:14.473Z,54.2
2017-09-07T14:29:12.428Z,54.5